West Yellowstone, MT (59758)

11:52 AM MST on February 13, 2016 (GMT -0700)
Lower Beartrap | | Change Station
CLOSE
Current Station
Personal Weather Station
Location: West Yellowstone, MT
Elevation: 6565 ft
Nearby Weather Stations

Elev 6565 ft 44.79 °N, 111.14 °W | Updated 7 minutes ago

Partly Cloudy
Partly Cloudy
29.8 °F
Feels Like 22 °F
N
8.3
Wind Variable Wind from SW
Gusts 8.3 mph

Today
High -- | Low -- °F
--% Chance of Precip.
Yesterday
High -- | Low -- °F
Precip. -- in
Pressure 30.06 in
Visibility -9999.0 miles
Clouds
Windchill 22 °F
Dew Point 26 °F
Humidity 85%
Rainfall 0.00 in
Snow Depth Not available.
7:28 AM 5:49 PM
Waxing Crescent, 33% visible
METAR KP60 131756Z AUTO 26008G31KT 240V300 M01/M07 A3004 RMK AO1 PK WND 27031/1754 SLP179 T10111067 10017 21050 56012 $
Pressure 30.06 in
Visibility -9999.0 miles
Clouds
Windchill 22 °F
Dew Point 26 °F
Humidity 85%
Rainfall 0.00 in
Snow Depth Not available.
7:28 AM 5:49 PM
Waxing Crescent, 33% visible
METAR KP60 131756Z AUTO 26008G31KT 240V300 M01/M07 A3004 RMK AO1 PK WND 27031/1754 SLP179 T10111067 10017 21050 56012 $

10-Day Weather Forecast

Almanac

Astronomy

Feb. 13, 2016 Rise Set
Actual Time
Civil Twilight
Nautical Twilight
Astronomical Twilight
Moon
Length of Visible Light
Length of Day
Tomorrow will be .
, % of the Moon is Illuminated

Today's Extremes

State Highs State Lows

Community

WunderPhotos

Upload Photos

1,892,633 photos uploaded!

WunderBlog® & News

Nearby

Air Quality

  Air Quality AQ Index Pollutant
Not available.

Snow Depth

Station Depth Elevation

Earthquake Activity

City Distance Mag. Time & Date
Minimum magnitude displayed is 2.5.

Coastal Water Temperatures

Place Temperature

Stations

Nearby Weather Stations

Station Location Temp. Windchill Dew Point Humidity Wind Precip. Elev Updated Type
                   

Watches & Warnings

There are currently no watches in effect.